sensor_id;sensor_type;location;lat;lon;timestamp;P1;durP1;ratioP1;P2;durP2;ratioP2
28311;SDS011;15572;48.810;9.148;2022-11-20T00:01:05;26.87;;;12.93;;
28311;SDS011;15572;48.810;9.148;2022-11-20T00:06:02;26.03;;;12.70;;
28311;SDS011;15572;48.810;9.148;2022-11-20T00:11:02;21.57;;;13.47;;
28311;SDS011;15572;48.810;9.148;2022-11-20T00:16:00;21.33;;;13.07;;
28311;SDS011;15572;48.810;9.148;2022-11-20T00:21:03;21.17;;;13.13;;
28311;SDS011;15572;48.810;9.148;2022-11-20T00:26:02;19.27;;;12.77;;
28311;SDS011;15572;48.810;9.148;2022-11-20T00:31:00;20.93;;;12.87;;
28311;SDS011;15572;48.810;9.148;2022-11-20T00:36:03;19.70;;;13.03;;
28311;SDS011;15572;48.810;9.148;2022-11-20T00:41:02;23.80;;;13.23;;
28311;SDS011;15572;48.810;9.148;2022-11-20T00:46:00;20.33;;;12.70;;
28311;SDS011;15572;48.810;9.148;2022-11-20T00:50:57;22.00;;;13.87;;
28311;SDS011;15572;48.810;9.148;2022-11-20T00:55:56;21.93;;;13.73;;
28311;SDS011;15572;48.810;9.148;2022-11-20T01:00:53;22.03;;;13.83;;
28311;SDS011;15572;48.810;9.148;2022-11-20T01:05:58;21.53;;;13.10;;
28311;SDS011;15572;48.810;9.148;2022-11-20T01:10:59;19.97;;;13.63;;
28311;SDS011;15572;48.810;9.148;2022-11-20T01:16:01;19.43;;;11.77;;
28311;SDS011;15572;48.810;9.148;2022-11-20T01:21:00;18.00;;;12.07;;
28311;SDS011;15572;48.810;9.148;2022-11-20T01:26:00;19.17;;;12.10;;
28311;SDS011;15572;48.810;9.148;2022-11-20T01:30:57;17.60;;;11.87;;
28311;SDS011;15572;48.810;9.148;2022-11-20T01:36:02;16.20;;;10.60;;
28311;SDS011;15572;48.810;9.148;2022-11-20T01:41:01;17.57;;;10.60;;
28311;SDS011;15572;48.810;9.148;2022-11-20T01:46:00;13.50;;;7.83;;
28311;SDS011;15572;48.810;9.148;2022-11-20T01:50:58;8.73;;;6.27;;
28311;SDS011;15572;48.810;9.148;2022-11-20T01:55:57;5.63;;;4.20;;
28311;SDS011;15572;48.810;9.148;2022-11-20T02:00:57;6.40;;;4.20;;
28311;SDS011;15572;48.810;9.148;2022-11-20T02:05:55;4.47;;;3.43;;
28311;SDS011;15572;48.810;9.148;2022-11-20T02:10:58;5.10;;;3.30;;
28311;SDS011;15572;48.810;9.148;2022-11-20T02:15:54;4.63;;;3.20;;
28311;SDS011;15572;48.810;9.148;2022-11-20T02:20:53;4.60;;;3.13;;
28311;SDS011;15572;48.810;9.148;2022-11-20T02:25:56;4.97;;;3.27;;
28311;SDS011;15572;48.810;9.148;2022-11-20T02:30:54;5.13;;;3.40;;
28311;SDS011;15572;48.810;9.148;2022-11-20T02:35:50;4.47;;;3.30;;
28311;SDS011;15572;48.810;9.148;2022-11-20T02:40:47;4.37;;;3.00;;
28311;SDS011;15572;48.810;9.148;2022-11-20T02:45:45;6.10;;;3.13;;
28311;SDS011;15572;48.810;9.148;2022-11-20T02:50:41;5.53;;;3.20;;
28311;SDS011;15572;48.810;9.148;2022-11-20T02:55:38;4.70;;;3.13;;
28311;SDS011;15572;48.810;9.148;2022-11-20T03:00:34;5.00;;;2.97;;
28311;SDS011;15572;48.810;9.148;2022-11-20T03:05:32;4.43;;;3.00;;
28311;SDS011;15572;48.810;9.148;2022-11-20T03:10:29;5.47;;;3.27;;
28311;SDS011;15572;48.810;9.148;2022-11-20T03:15:25;4.40;;;3.10;;
28311;SDS011;15572;48.810;9.148;2022-11-20T03:20:22;3.83;;;2.90;;
28311;SDS011;15572;48.810;9.148;2022-11-20T03:25:20;5.37;;;2.93;;
28311;SDS011;15572;48.810;9.148;2022-11-20T03:30:17;6.57;;;3.47;;
28311;SDS011;15572;48.810;9.148;2022-11-20T03:35:13;4.23;;;2.87;;
28311;SDS011;15572;48.810;9.148;2022-11-20T03:40:10;7.17;;;3.53;;
28311;SDS011;15572;48.810;9.148;2022-11-20T03:45:09;5.60;;;3.60;;
28311;SDS011;15572;48.810;9.148;2022-11-20T03:50:06;7.27;;;3.80;;
28311;SDS011;15572;48.810;9.148;2022-11-20T03:55:03;6.27;;;3.67;;
28311;SDS011;15572;48.810;9.148;2022-11-20T04:00:00;4.80;;;3.33;;
28311;SDS011;15572;48.810;9.148;2022-11-20T04:04:58;7.30;;;3.90;;
28311;SDS011;15572;48.810;9.148;2022-11-20T04:09:54;6.73;;;4.20;;
28311;SDS011;15572;48.810;9.148;2022-11-20T04:14:51;5.33;;;4.00;;
28311;SDS011;15572;48.810;9.148;2022-11-20T04:19:47;5.63;;;3.80;;
28311;SDS011;15572;48.810;9.148;2022-11-20T04:24:45;9.10;;;4.00;;
28311;SDS011;15572;48.810;9.148;2022-11-20T04:29:42;5.30;;;3.70;;
28311;SDS011;15572;48.810;9.148;2022-11-20T04:34:38;5.73;;;4.07;;
28311;SDS011;15572;48.810;9.148;2022-11-20T04:39:35;6.23;;;4.30;;
28311;SDS011;15572;48.810;9.148;2022-11-20T04:44:33;5.23;;;4.13;;
28311;SDS011;15572;48.810;9.148;2022-11-20T04:49:29;6.20;;;4.00;;
28311;SDS011;15572;48.810;9.148;2022-11-20T04:54:26;6.13;;;3.83;;
28311;SDS011;15572;48.810;9.148;2022-11-20T04:59:25;6.83;;;4.17;;
28311;SDS011;15572;48.810;9.148;2022-11-20T05:04:23;5.03;;;3.70;;
28311;SDS011;15572;48.810;9.148;2022-11-20T05:09:20;5.13;;;3.47;;
28311;SDS011;15572;48.810;9.148;2022-11-20T05:14:16;4.83;;;3.53;;
28311;SDS011;15572;48.810;9.148;2022-11-20T05:19:13;5.07;;;3.20;;
28311;SDS011;15572;48.810;9.148;2022-11-20T05:24:11;4.50;;;3.50;;
28311;SDS011;15572;48.810;9.148;2022-11-20T05:29:09;5.20;;;3.50;;
28311;SDS011;15572;48.810;9.148;2022-11-20T05:34:06;4.83;;;3.60;;
28311;SDS011;15572;48.810;9.148;2022-11-20T05:39:03;4.03;;;3.13;;
28311;SDS011;15572;48.810;9.148;2022-11-20T05:44:01;7.03;;;3.03;;
28311;SDS011;15572;48.810;9.148;2022-11-20T05:48:58;5.60;;;3.00;;
28311;SDS011;15572;48.810;9.148;2022-11-20T05:53:55;4.37;;;3.03;;
28311;SDS011;15572;48.810;9.148;2022-11-20T05:58:53;3.30;;;2.83;;
28311;SDS011;15572;48.810;9.148;2022-11-20T06:03:51;5.77;;;3.17;;
28311;SDS011;15572;48.810;9.148;2022-11-20T06:08:49;3.37;;;3.00;;
28311;SDS011;15572;48.810;9.148;2022-11-20T06:13:45;4.93;;;3.40;;
28311;SDS011;15572;48.810;9.148;2022-11-20T06:18:42;6.60;;;3.17;;
28311;SDS011;15572;48.810;9.148;2022-11-20T06:23:40;8.20;;;3.00;;
28311;SDS011;15572;48.810;9.148;2022-11-20T06:28:37;3.90;;;2.60;;
28311;SDS011;15572;48.810;9.148;2022-11-20T06:33:34;4.13;;;2.63;;
28311;SDS011;15572;48.810;9.148;2022-11-20T06:38:31;2.50;;;2.30;;
28311;SDS011;15572;48.810;9.148;2022-11-20T06:43:29;4.03;;;2.87;;
28311;SDS011;15572;48.810;9.148;2022-11-20T06:48:26;2.67;;;2.47;;
28311;SDS011;15572;48.810;9.148;2022-11-20T06:53:23;3.13;;;2.13;;
28311;SDS011;15572;48.810;9.148;2022-11-20T06:58:20;2.20;;;2.00;;
28311;SDS011;15572;48.810;9.148;2022-11-20T07:03:18;2.00;;;1.80;;
28311;SDS011;15572;48.810;9.148;2022-11-20T07:08:15;2.90;;;2.10;;
28311;SDS011;15572;48.810;9.148;2022-11-20T07:13:11;2.47;;;1.83;;
28311;SDS011;15572;48.810;9.148;2022-11-20T07:18:08;2.43;;;1.60;;
28311;SDS011;15572;48.810;9.148;2022-11-20T07:23:06;2.20;;;1.27;;
28311;SDS011;15572;48.810;9.148;2022-11-20T07:28:02;3.00;;;2.00;;
28311;SDS011;15572;48.810;9.148;2022-11-20T07:32:59;2.17;;;1.97;;
28311;SDS011;15572;48.810;9.148;2022-11-20T07:37:56;2.37;;;1.83;;
28311;SDS011;15572;48.810;9.148;2022-11-20T07:42:54;2.90;;;1.70;;
28311;SDS011;15572;48.810;9.148;2022-11-20T07:47:51;2.07;;;1.87;;
28311;SDS011;15572;48.810;9.148;2022-11-20T07:52:48;2.20;;;1.93;;
28311;SDS011;15572;48.810;9.148;2022-11-20T07:57:44;2.23;;;1.60;;
28311;SDS011;15572;48.810;9.148;2022-11-20T08:02:42;2.23;;;1.90;;
28311;SDS011;15572;48.810;9.148;2022-11-20T08:07:39;2.03;;;1.60;;
28311;SDS011;15572;48.810;9.148;2022-11-20T08:12:42;2.57;;;1.80;;
28311;SDS011;15572;48.810;9.148;2022-11-20T08:18:02;1.93;;;1.70;;
28311;SDS011;15572;48.810;9.148;2022-11-20T08:23:01;3.33;;;2.10;;
28311;SDS011;15572;48.810;9.148;2022-11-20T08:28:00;3.37;;;1.60;;
28311;SDS011;15572;48.810;9.148;2022-11-20T08:33:00;1.57;;;1.47;;
28311;SDS011;15572;48.810;9.148;2022-11-20T08:37:59;1.43;;;1.33;;
28311;SDS011;15572;48.810;9.148;2022-11-20T08:42:55;1.77;;;1.10;;
28311;SDS011;15572;48.810;9.148;2022-11-20T08:47:52;1.60;;;1.20;;
28311;SDS011;15572;48.810;9.148;2022-11-20T08:52:48;1.93;;;0.80;;
28311;SDS011;15572;48.810;9.148;2022-11-20T08:57:46;1.07;;;0.97;;
28311;SDS011;15572;48.810;9.148;2022-11-20T09:02:43;1.53;;;1.00;;
28311;SDS011;15572;48.810;9.148;2022-11-20T09:07:39;2.07;;;1.00;;
28311;SDS011;15572;48.810;9.148;2022-11-20T09:12:37;0.90;;;0.90;;
28311;SDS011;15572;48.810;9.148;2022-11-20T09:17:34;0.80;;;0.80;;
28311;SDS011;15572;48.810;9.148;2022-11-20T09:22:31;1.23;;;1.07;;
28311;SDS011;15572;48.810;9.148;2022-11-20T09:27:28;0.70;;;0.70;;
28311;SDS011;15572;48.810;9.148;2022-11-20T09:32:24;0.83;;;0.77;;
28311;SDS011;15572;48.810;9.148;2022-11-20T09:37:22;1.07;;;1.00;;
28311;SDS011;15572;48.810;9.148;2022-11-20T09:42:31;0.70;;;0.70;;
28311;SDS011;15572;48.810;9.148;2022-11-20T09:47:37;1.43;;;0.90;;
28311;SDS011;15572;48.810;9.148;2022-11-20T09:52:46;1.23;;;0.97;;
28311;SDS011;15572;48.810;9.148;2022-11-20T09:57:51;0.60;;;0.60;;
28311;SDS011;15572;48.810;9.148;2022-11-20T10:02:48;0.60;;;0.60;;
28311;SDS011;15572;48.810;9.148;2022-11-20T10:07:52;0.70;;;0.70;;
28311;SDS011;15572;48.810;9.148;2022-11-20T10:13:00;1.47;;;0.80;;
28311;SDS011;15572;48.810;9.148;2022-11-20T10:18:12;0.80;;;0.80;;
28311;SDS011;15572;48.810;9.148;2022-11-20T10:23:27;1.37;;;1.10;;
28311;SDS011;15572;48.810;9.148;2022-11-20T10:28:43;1.43;;;0.87;;
28311;SDS011;15572;48.810;9.148;2022-11-20T10:33:49;0.90;;;0.90;;
28311;SDS011;15572;48.810;9.148;2022-11-20T10:38:51;0.90;;;0.90;;
28311;SDS011;15572;48.810;9.148;2022-11-20T10:43:54;1.40;;;1.10;;
28311;SDS011;15572;48.810;9.148;2022-11-20T10:48:57;0.90;;;0.90;;
28311;SDS011;15572;48.810;9.148;2022-11-20T10:59:25;2.47;;;1.30;;
28311;SDS011;15572;48.810;9.148;2022-11-20T11:04:33;2.10;;;1.47;;
28311;SDS011;15572;48.810;9.148;2022-11-20T11:09:35;1.90;;;1.50;;
28311;SDS011;15572;48.810;9.148;2022-11-20T11:14:42;2.17;;;1.20;;
28311;SDS011;15572;48.810;9.148;2022-11-20T11:19:40;1.17;;;1.17;;
28311;SDS011;15572;48.810;9.148;2022-11-20T11:24:37;1.90;;;1.70;;
28311;SDS011;15572;48.810;9.148;2022-11-20T11:29:34;1.47;;;1.37;;
28311;SDS011;15572;48.810;9.148;2022-11-20T11:34:31;1.60;;;1.50;;
28311;SDS011;15572;48.810;9.148;2022-11-20T11:39:28;3.70;;;1.70;;
28311;SDS011;15572;48.810;9.148;2022-11-20T11:44:28;3.00;;;2.20;;
28311;SDS011;15572;48.810;9.148;2022-11-20T11:49:44;1.87;;;1.77;;
28311;SDS011;15572;48.810;9.148;2022-11-20T11:54:43;2.23;;;1.77;;
28311;SDS011;15572;48.810;9.148;2022-11-20T11:59:47;3.70;;;1.70;;
28311;SDS011;15572;48.810;9.148;2022-11-20T12:04:50;3.03;;;2.10;;
28311;SDS011;15572;48.810;9.148;2022-11-20T12:09:53;4.57;;;2.20;;
28311;SDS011;15572;48.810;9.148;2022-11-20T12:14:55;1.90;;;1.33;;
28311;SDS011;15572;48.810;9.148;2022-11-20T12:19:52;4.07;;;1.70;;
28311;SDS011;15572;48.810;9.148;2022-11-20T12:24:52;3.33;;;1.10;;
28311;SDS011;15572;48.810;9.148;2022-11-20T12:29:58;0.87;;;0.80;;
28311;SDS011;15572;48.810;9.148;2022-11-20T12:35:00;2.57;;;1.40;;
28311;SDS011;15572;48.810;9.148;2022-11-20T12:40:14;3.33;;;1.30;;
28311;SDS011;15572;48.810;9.148;2022-11-20T12:45:34;1.73;;;1.23;;
28311;SDS011;15572;48.810;9.148;2022-11-20T12:50:44;1.43;;;1.10;;
28311;SDS011;15572;48.810;9.148;2022-11-20T12:55:50;1.07;;;0.80;;
28311;SDS011;15572;48.810;9.148;2022-11-20T13:01:00;1.43;;;1.10;;
28311;SDS011;15572;48.810;9.148;2022-11-20T13:06:34;1.47;;;1.00;;
28311;SDS011;15572;48.810;9.148;2022-11-20T13:11:32;3.20;;;0.90;;
28311;SDS011;15572;48.810;9.148;2022-11-20T13:16:39;2.33;;;0.70;;
28311;SDS011;15572;48.810;9.148;2022-11-20T13:21:40;1.57;;;0.97;;
28311;SDS011;15572;48.810;9.148;2022-11-20T13:26:39;2.23;;;1.00;;
28311;SDS011;15572;48.810;9.148;2022-11-20T13:31:38;1.83;;;0.80;;
28311;SDS011;15572;48.810;9.148;2022-11-20T13:36:48;1.60;;;1.00;;
28311;SDS011;15572;48.810;9.148;2022-11-20T13:41:53;1.57;;;0.90;;
28311;SDS011;15572;48.810;9.148;2022-11-20T13:46:51;1.00;;;0.67;;
28311;SDS011;15572;48.810;9.148;2022-11-20T13:51:49;0.70;;;0.67;;
28311;SDS011;15572;48.810;9.148;2022-11-20T13:56:49;2.00;;;0.80;;
28311;SDS011;15572;48.810;9.148;2022-11-20T14:01:55;2.03;;;0.90;;
28311;SDS011;15572;48.810;9.148;2022-11-20T14:06:52;1.43;;;0.60;;
28311;SDS011;15572;48.810;9.148;2022-11-20T14:11:48;3.30;;;0.90;;
28311;SDS011;15572;48.810;9.148;2022-11-20T14:16:45;1.13;;;0.80;;
28311;SDS011;15572;48.810;9.148;2022-11-20T14:21:43;3.30;;;0.90;;
28311;SDS011;15572;48.810;9.148;2022-11-20T14:26:41;1.00;;;0.90;;
28311;SDS011;15572;48.810;9.148;2022-11-20T14:31:39;1.37;;;1.10;;
28311;SDS011;15572;48.810;9.148;2022-11-20T14:36:35;2.30;;;1.07;;
28311;SDS011;15572;48.810;9.148;2022-11-20T14:41:35;3.17;;;1.07;;
28311;SDS011;15572;48.810;9.148;2022-11-20T14:46:32;3.77;;;1.40;;
28311;SDS011;15572;48.810;9.148;2022-11-20T14:51:30;2.87;;;1.80;;
28311;SDS011;15572;48.810;9.148;2022-11-20T14:56:29;2.93;;;2.00;;
28311;SDS011;15572;48.810;9.148;2022-11-20T15:01:28;6.03;;;3.27;;
28311;SDS011;15572;48.810;9.148;2022-11-20T15:06:26;5.93;;;3.13;;
28311;SDS011;15572;48.810;9.148;2022-11-20T15:11:27;6.83;;;2.83;;
28311;SDS011;15572;48.810;9.148;2022-11-20T15:16:27;5.00;;;1.80;;
28311;SDS011;15572;48.810;9.148;2022-11-20T15:21:24;4.57;;;2.17;;
28311;SDS011;15572;48.810;9.148;2022-11-20T15:26:22;10.10;;;4.10;;
28311;SDS011;15572;48.810;9.148;2022-11-20T15:31:21;12.10;;;6.77;;
28311;SDS011;15572;48.810;9.148;2022-11-20T15:36:20;8.60;;;4.77;;
28311;SDS011;15572;48.810;9.148;2022-11-20T15:41:17;20.90;;;10.87;;
28311;SDS011;15572;48.810;9.148;2022-11-20T15:46:15;10.10;;;5.57;;
28311;SDS011;15572;48.810;9.148;2022-11-20T15:51:15;20.37;;;8.43;;
28311;SDS011;15572;48.810;9.148;2022-11-20T15:56:20;8.27;;;5.03;;
28311;SDS011;15572;48.810;9.148;2022-11-20T16:01:17;4.80;;;3.33;;
28311;SDS011;15572;48.810;9.148;2022-11-20T16:06:16;4.47;;;3.17;;
28311;SDS011;15572;48.810;9.148;2022-11-20T16:11:15;6.97;;;4.20;;
28311;SDS011;15572;48.810;9.148;2022-11-20T16:16:19;3.70;;;2.83;;
28311;SDS011;15572;48.810;9.148;2022-11-20T16:21:18;4.10;;;3.10;;
28311;SDS011;15572;48.810;9.148;2022-11-20T16:26:16;3.37;;;2.93;;
28311;SDS011;15572;48.810;9.148;2022-11-20T16:31:15;3.47;;;2.70;;
28311;SDS011;15572;48.810;9.148;2022-11-20T16:36:13;4.40;;;2.47;;
28311;SDS011;15572;48.810;9.148;2022-11-20T16:41:10;6.03;;;3.40;;
28311;SDS011;15572;48.810;9.148;2022-11-20T16:46:10;4.13;;;3.40;;
28311;SDS011;15572;48.810;9.148;2022-11-20T16:51:07;3.93;;;2.73;;
28311;SDS011;15572;48.810;9.148;2022-11-20T16:56:08;4.77;;;3.47;;
28311;SDS011;15572;48.810;9.148;2022-11-20T17:01:06;5.50;;;2.77;;
28311;SDS011;15572;48.810;9.148;2022-11-20T17:06:12;4.97;;;2.73;;
28311;SDS011;15572;48.810;9.148;2022-11-20T17:11:11;3.77;;;2.50;;
28311;SDS011;15572;48.810;9.148;2022-11-20T17:16:10;4.70;;;2.53;;
28311;SDS011;15572;48.810;9.148;2022-11-20T17:21:07;4.53;;;2.20;;
28311;SDS011;15572;48.810;9.148;2022-11-20T17:26:06;4.90;;;2.33;;
28311;SDS011;15572;48.810;9.148;2022-11-20T17:31:05;3.23;;;2.10;;
28311;SDS011;15572;48.810;9.148;2022-11-20T17:36:03;2.27;;;1.90;;
28311;SDS011;15572;48.810;9.148;2022-11-20T17:41:00;2.00;;;1.80;;
28311;SDS011;15572;48.810;9.148;2022-11-20T17:45:59;4.07;;;2.13;;
28311;SDS011;15572;48.810;9.148;2022-11-20T17:50:58;3.57;;;2.50;;
28311;SDS011;15572;48.810;9.148;2022-11-20T17:55:55;3.20;;;2.50;;
28311;SDS011;15572;48.810;9.148;2022-11-20T18:01:10;2.90;;;2.07;;
28311;SDS011;15572;48.810;9.148;2022-11-20T18:06:07;5.03;;;3.00;;
28311;SDS011;15572;48.810;9.148;2022-11-20T18:11:08;3.57;;;2.40;;
28311;SDS011;15572;48.810;9.148;2022-11-20T18:16:06;3.57;;;2.00;;
28311;SDS011;15572;48.810;9.148;2022-11-20T18:21:04;3.43;;;2.60;;
28311;SDS011;15572;48.810;9.148;2022-11-20T18:26:00;3.80;;;2.40;;
28311;SDS011;15572;48.810;9.148;2022-11-20T18:30:57;4.37;;;2.30;;
28311;SDS011;15572;48.810;9.148;2022-11-20T18:35:53;4.93;;;2.90;;
28311;SDS011;15572;48.810;9.148;2022-11-20T18:40:51;6.40;;;3.60;;
28311;SDS011;15572;48.810;9.148;2022-11-20T18:45:48;6.27;;;3.10;;
28311;SDS011;15572;48.810;9.148;2022-11-20T18:50:46;3.70;;;1.70;;
28311;SDS011;15572;48.810;9.148;2022-11-20T18:55:43;4.53;;;1.70;;
28311;SDS011;15572;48.810;9.148;2022-11-20T19:00:40;3.93;;;1.30;;
28311;SDS011;15572;48.810;9.148;2022-11-20T19:05:37;2.90;;;1.50;;
28311;SDS011;15572;48.810;9.148;2022-11-20T19:10:34;2.33;;;1.40;;
28311;SDS011;15572;48.810;9.148;2022-11-20T19:15:31;3.57;;;1.60;;
28311;SDS011;15572;48.810;9.148;2022-11-20T19:20:31;2.90;;;1.90;;
28311;SDS011;15572;48.810;9.148;2022-11-20T19:25:29;2.37;;;1.80;;
28311;SDS011;15572;48.810;9.148;2022-11-20T19:30:25;2.10;;;1.90;;
28311;SDS011;15572;48.810;9.148;2022-11-20T19:35:22;2.87;;;1.93;;
28311;SDS011;15572;48.810;9.148;2022-11-20T19:40:31;1.90;;;1.37;;
28311;SDS011;15572;48.810;9.148;2022-11-20T19:45:28;1.97;;;1.30;;
28311;SDS011;15572;48.810;9.148;2022-11-20T19:50:26;1.47;;;0.90;;
28311;SDS011;15572;48.810;9.148;2022-11-20T19:55:23;0.93;;;0.60;;
28311;SDS011;15572;48.810;9.148;2022-11-20T20:00:20;0.83;;;0.83;;
28311;SDS011;15572;48.810;9.148;2022-11-20T20:05:17;0.90;;;0.90;;
28311;SDS011;15572;48.810;9.148;2022-11-20T20:10:13;1.10;;;0.80;;
28311;SDS011;15572;48.810;9.148;2022-11-20T20:15:13;1.23;;;1.00;;
28311;SDS011;15572;48.810;9.148;2022-11-20T20:20:10;1.47;;;0.60;;
28311;SDS011;15572;48.810;9.148;2022-11-20T20:25:06;0.60;;;0.60;;
28311;SDS011;15572;48.810;9.148;2022-11-20T20:30:03;0.70;;;0.70;;
28311;SDS011;15572;48.810;9.148;2022-11-20T20:35:02;0.97;;;0.73;;
28311;SDS011;15572;48.810;9.148;2022-11-20T20:39:59;0.83;;;0.70;;
28311;SDS011;15572;48.810;9.148;2022-11-20T20:44:56;0.67;;;0.60;;
28311;SDS011;15572;48.810;9.148;2022-11-20T20:50:03;0.60;;;0.60;;
28311;SDS011;15572;48.810;9.148;2022-11-20T20:55:00;1.10;;;0.90;;
28311;SDS011;15572;48.810;9.148;2022-11-20T20:59:58;0.50;;;0.50;;
28311;SDS011;15572;48.810;9.148;2022-11-20T21:04:54;0.80;;;0.80;;
28311;SDS011;15572;48.810;9.148;2022-11-20T21:09:52;0.60;;;0.60;;
28311;SDS011;15572;48.810;9.148;2022-11-20T21:14:48;0.70;;;0.70;;
28311;SDS011;15572;48.810;9.148;2022-11-20T21:19:45;0.50;;;0.50;;
28311;SDS011;15572;48.810;9.148;2022-11-20T21:24:42;0.60;;;0.40;;
28311;SDS011;15572;48.810;9.148;2022-11-20T21:29:39;0.70;;;0.70;;
28311;SDS011;15572;48.810;9.148;2022-11-20T21:34:36;1.10;;;1.00;;
28311;SDS011;15572;48.810;9.148;2022-11-20T21:39:32;1.70;;;1.60;;
28311;SDS011;15572;48.810;9.148;2022-11-20T21:44:29;1.03;;;0.63;;
28311;SDS011;15572;48.810;9.148;2022-11-20T21:49:27;1.30;;;0.70;;
28311;SDS011;15572;48.810;9.148;2022-11-20T21:54:23;0.80;;;0.77;;
28311;SDS011;15572;48.810;9.148;2022-11-20T21:59:20;0.57;;;0.57;;
28311;SDS011;15572;48.810;9.148;2022-11-20T22:04:17;0.80;;;0.80;;
28311;SDS011;15572;48.810;9.148;2022-11-20T22:09:15;1.30;;;0.80;;
28311;SDS011;15572;48.810;9.148;2022-11-20T22:14:11;2.50;;;1.40;;
28311;SDS011;15572;48.810;9.148;2022-11-20T22:19:17;5.93;;;2.10;;
28311;SDS011;15572;48.810;9.148;2022-11-20T22:24:16;3.07;;;1.53;;
28311;SDS011;15572;48.810;9.148;2022-11-20T22:29:15;2.23;;;1.20;;
28311;SDS011;15572;48.810;9.148;2022-11-20T22:34:13;2.97;;;1.03;;
28311;SDS011;15572;48.810;9.148;2022-11-20T22:39:10;2.50;;;0.80;;
28311;SDS011;15572;48.810;9.148;2022-11-20T22:44:11;2.27;;;1.10;;
28311;SDS011;15572;48.810;9.148;2022-11-20T22:49:09;0.80;;;0.80;;
28311;SDS011;15572;48.810;9.148;2022-11-20T22:54:05;1.13;;;0.80;;
28311;SDS011;15572;48.810;9.148;2022-11-20T22:59:03;1.13;;;1.00;;
28311;SDS011;15572;48.810;9.148;2022-11-20T23:04:02;0.93;;;0.70;;
28311;SDS011;15572;48.810;9.148;2022-11-20T23:09:00;0.70;;;0.70;;
28311;SDS011;15572;48.810;9.148;2022-11-20T23:13:57;0.97;;;0.90;;
28311;SDS011;15572;48.810;9.148;2022-11-20T23:18:55;0.83;;;0.60;;
28311;SDS011;15572;48.810;9.148;2022-11-20T23:23:55;0.50;;;0.50;;
28311;SDS011;15572;48.810;9.148;2022-11-20T23:28:53;1.20;;;0.80;;
28311;SDS011;15572;48.810;9.148;2022-11-20T23:33:51;1.30;;;0.70;;
28311;SDS011;15572;48.810;9.148;2022-11-20T23:38:48;0.70;;;0.60;;
28311;SDS011;15572;48.810;9.148;2022-11-20T23:43:46;0.93;;;0.80;;
28311;SDS011;15572;48.810;9.148;2022-11-20T23:48:43;2.40;;;0.70;;
28311;SDS011;15572;48.810;9.148;2022-11-20T23:53:40;0.60;;;0.60;;
28311;SDS011;15572;48.810;9.148;2022-11-20T23:58:37;1.03;;;0.60;;
